Etusivu
METAR-TAF:

METAR-TAF

Lentoasemat :

O. R. Tambon kansainvälinen lentoasema

Johannesburg, Etelä-Afrikka

Leveyspiiri: 26-08S, Pituuspiiri: 028-14E, korkeus merenpinnasta: 1694 m

Tämänhetkinen sää

Tämä raportti tehtiin 51 minuuttia sitten, kello 04.30 UTC
Tuuli 2 kn eri suunnista
Lämpötila 5°C
Kosteus 87%
Ilmanpaine 1031 hPa
Näkyvyys: 7000 m

METAR: FAOR 140430Z VRB02KT 7000 NSC 05/03 Q1031 TEMPO 5000 BR

Aika: 07:21 (05:21 UTC)

Sääennuste

Tämä raportti tehtiin 7 tuntia ja 21 minuuttia sitten, kello 22.00 UTC
Ennuste voimassa 14. päivästä klo 00 UTC - 15. päivään klo 06 UTC
Tuuli 3 kn eri suunnista
Näkyvyys 10 km tai enemmän
ei pilviä alle 1500 m:ssä eikä cumulonimbus-pilviä

TAF: FAOR 132200Z 1400/1506 VRB03KT CAVOK TX18/1412Z TN06/1404Z

Säähavainnot ja -ennusteet yli 4000 lentoasemalta (METAR- ja TAF-raportit).

Käytössä olevat sääasemat on merkitty karttaan keltaisilla ja punaisilla pisteillä.

Aseta hiiri pisteen päälle nähdäksesi sääaseman nimen.

Klikkaa sitten nähdäksesi säähavainnot ja -ennusteet.

Kartan vaihtaminen: klikkaa mustalla rastilla varustettuja vihreitä pisteitä, niin voit zoomata sisään; viivalla varustettua vihreää pistettä, niin voit zoomata ulos tai vihreitä nuolia, niin pääset viereisille kartoille.


METAR-TAF: